Kings Mountain, North Carolina
Current Conditions -  °F | °C
As of 1:54 PM on Tuesday 21 Oct 2014 (Local Time) from KAKH Reporting Station
Few Clouds Few Clouds  
Wind Chill: 73°   Ceiling: Unl
Heat Index: 73°   Visibility: 10mi
Dew Point: 47°   Wind: 7mph
Humidity: 39%   Direction: NA
Pressure: 29.89"   Gusts: NA
Location:  35.24°N, 81.34°W
Report Text: KAKH 211754Z AUTO VRB06KT 10SM FEW055 23/08 A2989 RMK AO2 SLP118 T02280083 10228 20078 58021
Loading
Personal Weather Stations






























Interactive Weather Map New forecast layout! Learn more

10-Day Weather Forecast

Advertisements
Track Severe Weather on mobile